Rhonda Lamulle — WDC8441 — position and weather

sailwx.info

Track history (hours):
 
Tides and Currents Weather Stations Pressure Air Temp Water Temp Dewpoint Dewpoint Depression Visibility Wind Speed Wind Dir Waves Ship Positions

Rhonda Lamulle

Owner: Florida Marine, LLC, Mandeville, LA. More information available from US FCC via Universal Licensing System and Coast Guard Vessel Documentation Center.

Last reported at 2017-Jan-15 10:31 UTC. Time now 2017-Jan-19 15:01 UTC.
Position N 30°24' W 086°54'.

Length 13 m; draft 3 m.

Type: Towing. MMSI: 367087104.

Date/timePositionNaut miles runAvg speedWind from/ knotsBaromVisibWave heightAir tempDewpointWater temp
2017-Jan-15 10:31N 30°24' W 086°54'6 5.8
2017-Jan-15 09:33N 30°24' W 086°47'  
2017-Jan-11 00:23N 30°24' W 086°36'4 5.4
2017-Jan-10 23:33N 30°25' W 086°31'4 4.2
2017-Jan-10 22:33N 30°29' W 086°29'1 0.5
2017-Jan-10 21:33N 30°29' W 086°29'0 0.0
2017-Jan-10 20:33N 30°29' W 086°29'0 0.0
2017-Jan-10 19:33N 30°29' W 086°29'0 0.0
2017-Jan-10 18:33N 30°29' W 086°29'0 0.0
2017-Jan-10 17:33N 30°29' W 086°29'0 0.0
2017-Jan-10 16:33N 30°29' W 086°29'0 0.0
2017-Jan-10 15:33N 30°29' W 086°29'0 0.1
2017-Jan-10 14:33N 30°29' W 086°29'2 1.7
2017-Jan-10 13:33N 30°28' W 086°28'5 5.3
2017-Jan-10 12:33N 30°26' W 086°22'6 5.8
2017-Jan-10 11:33N 30°26' W 086°15'2 0.0
2017-Jan-08 17:27N 30°26' W 086°13'5 5.2
2017-Jan-08 16:33N 30°26' W 086°19'5 5.3
2017-Jan-08 15:33N 30°26' W 086°25'5 5.1
2017-Jan-08 14:33N 30°25' W 086°31'5 4.8
2017-Jan-08 13:33N 30°24' W 086°36'8 4.0
2017-Jan-08 11:33N 30°24' W 086°46'5 4.9
2017-Jan-08 10:33N 30°24' W 086°51'  
Track history (hours):
 
Tides and Currents Weather Stations Pressure Air Temp Water Temp Dewpoint Dewpoint Depression Visibility Wind Speed Wind Dir Waves Ship Positions

Rhonda Lamulle

Owner: Florida Marine, LLC, Mandeville, LA. More information available from US FCC via Universal Licensing System and Coast Guard Vessel Documentation Center.

Last reported at 2017-Jan-15 10:31 UTC. Time now 2017-Jan-19 15:01 UTC.
Position N 30°24' W 086°54'.

Length 13 m; draft 3 m.

Type: Towing. MMSI: 367087104.

Date/timePositionNaut miles runAvg speedWind from/ knotsBaromVisibWave heightAir tempDewpointWater temp
2017-Jan-15 10:31N 30°24' W 086°54'6 5.8
2017-Jan-15 09:33N 30°24' W 086°47'  
2017-Jan-11 00:23N 30°24' W 086°36'4 5.4
2017-Jan-10 23:33N 30°25' W 086°31'4 4.2
2017-Jan-10 22:33N 30°29' W 086°29'1 0.5
2017-Jan-10 21:33N 30°29' W 086°29'0 0.0
2017-Jan-10 20:33N 30°29' W 086°29'0 0.0
2017-Jan-10 19:33N 30°29' W 086°29'0 0.0
2017-Jan-10 18:33N 30°29' W 086°29'0 0.0
2017-Jan-10 17:33N 30°29' W 086°29'0 0.0
2017-Jan-10 16:33N 30°29' W 086°29'0 0.0
2017-Jan-10 15:33N 30°29' W 086°29'0 0.1
2017-Jan-10 14:33N 30°29' W 086°29'2 1.7
2017-Jan-10 13:33N 30°28' W 086°28'5 5.3
2017-Jan-10 12:33N 30°26' W 086°22'6 5.8
2017-Jan-10 11:33N 30°26' W 086°15'2 0.0
2017-Jan-08 17:27N 30°26' W 086°13'5 5.2
2017-Jan-08 16:33N 30°26' W 086°19'5 5.3
2017-Jan-08 15:33N 30°26' W 086°25'5 5.1
2017-Jan-08 14:33N 30°25' W 086°31'5 4.8
2017-Jan-08 13:33N 30°24' W 086°36'8 4.0
2017-Jan-08 11:33N 30°24' W 086°46'5 4.9
2017-Jan-08 10:33N 30°24' W 086°51'  

Dump ship's entire track history